Weather History for Natchitoches, LA

Change the Weather History Date:

Monday, May 13, 2013

  Actual Average Record
Temperature  
Mean Temperature 64 °F -  
Max Temperature 81 °F 84 °F 94 °F (1943)
Min Temperature 46 °F 62 °F 43 °F (1960)
Degree Days  
Heating Degree Days 2    
Growing Degree Days 14 (Base 50)    
Moisture  
Dew Point 50 °F    
Average Humidity 67    
Maximum Humidity 100    
Minimum Humidity 31    
Precipitation  
Precipitation 0.00 in - - ()
Sea Level Pressure  
Sea Level Pressure 30.23 in    
Wind  
Wind Speed 2 mph (South)    
Max Wind Speed 10 mph    
Max Gust Speed -    
Visibility 10 miles    
Events      
Averages and records for this station are not official NWS values.
T = Trace of Precipitation, MM = Missing Value Source: NWS Daily Summary

Daily Weather History Graph

Daily Weather History Graph

Search for Another Location

Airport:

Trip Planner

Search our weather history database for the weather conditions in past years. The results will help you decide how hot, cold, wet, or windy it might be!

Date:

Astronomy

May. 13, 2013 Rise Set
Actual Time 6:16 AM CDT 8:01 PM CDT
Civil Twilight 5:50 AM CDT 8:27 PM CDT
Nautical Twilight 5:18 AM CDT 8:59 PM CDT
Astronomical Twilight 4:44 AM CDT 9:33 PM CDT
Moon 9:04 AM CDT (5/13) 11:10 PM CDT (5/13)
Length of Visible Light 14h 37m
Length of Day
13h 44m
Waxing Crescent, 12% of the Moon is Illuminated
May 13
Waxing Crescent
May 17
First Quarter
May 24
Full
May 31
Last Quarter
Jun 8
New

Hourly Weather History & Observations

Time (CDT) Temp. Dew Point Humidity Pressure Visibility Wind Dir Wind Speed Gust Speed Precip Events Conditions
12:15 AM 52.9 °F 51.8 °F 96% 30.21 in 10.0 mi Calm Calm - N/A   Clear
12:35 AM 51.8 °F 50.2 °F 94% 30.20 in 10.0 mi Calm Calm - N/A   Clear
12:55 AM 52.0 °F 51.3 °F 97% 30.21 in 10.0 mi Calm Calm - N/A   Clear
1:15 AM 52.2 °F 51.6 °F 98% 30.21 in 10.0 mi Calm Calm - N/A   Clear
1:35 AM 51.8 °F 51.1 °F 97% 30.20 in 10.0 mi Calm Calm - N/A   Clear
1:55 AM 51.6 °F 51.1 °F 98% 30.20 in 10.0 mi Calm Calm - N/A   Clear
2:15 AM 50.9 °F 50.2 °F 97% 30.20 in 10.0 mi Calm Calm - N/A   Clear
2:35 AM 50.5 °F 50.2 °F 99% 30.20 in 10.0 mi Calm Calm - N/A   Clear
2:55 AM 50.4 °F 50.0 °F 99% 30.20 in 10.0 mi Calm Calm - N/A   Clear
3:15 AM 50.0 °F 50.0 °F 100% 30.20 in 10.0 mi Calm Calm - N/A   Clear
3:35 AM 49.3 °F 49.1 °F 99% 30.20 in 7.0 mi Calm Calm - N/A   Clear
3:55 AM 49.3 °F 49.3 °F 100% 30.20 in 7.0 mi Calm Calm - N/A   Clear
4:15 AM 48.9 °F 48.7 °F 99% 30.20 in 10.0 mi Calm Calm - N/A   Clear
4:35 AM 48.2 °F 48.2 °F 100% 30.20 in 10.0 mi Calm Calm - N/A   Clear
4:55 AM 48.0 °F 47.8 °F 99% 30.21 in 5.0 mi Calm Calm - N/A   Clear
5:15 AM 48.2 °F 47.8 °F 99% 30.21 in 7.0 mi Calm Calm - N/A   Clear
5:35 AM 46.8 °F 46.6 °F 99% 30.22 in 10.0 mi Calm Calm - N/A   Clear
5:55 AM 48.2 °F 47.7 °F 98% 30.23 in 10.0 mi Calm Calm - N/A   Clear
6:15 AM 47.8 °F 47.5 °F 99% 30.24 in 10.0 mi Calm Calm - N/A   Clear
6:35 AM 47.7 °F 47.5 °F 99% 30.25 in 7.0 mi Calm Calm - N/A   Clear
6:55 AM 48.4 °F 48.4 °F 100% 30.26 in 10.0 mi Calm Calm - N/A   Clear
7:15 AM 50.4 °F 49.8 °F 98% 30.26 in 10.0 mi Calm Calm - N/A   Clear
7:35 AM 53.1 °F 51.1 °F 93% 30.27 in 10.0 mi Calm Calm - N/A   Clear
7:55 AM 54.9 °F 52.2 °F 91% 30.27 in 10.0 mi Calm Calm - N/A   Clear
8:15 AM 57.2 °F 52.9 °F 85% 30.28 in 10.0 mi Calm Calm - N/A   Clear
8:35 AM 59.4 °F 52.9 °F 79% 30.29 in 10.0 mi Calm Calm - N/A   Clear
8:55 AM 61.5 °F 51.4 °F 69% 30.29 in 10.0 mi SSE 3.5 mph - N/A   Clear
9:15 AM 63.1 °F 50.0 °F 62% 30.30 in 10.0 mi SSE 4.6 mph - N/A   Clear
9:35 AM 64.8 °F 49.6 °F 58% 30.30 in 10.0 mi SSE 8.1 mph - N/A   Clear
9:55 AM 65.8 °F 48.7 °F 54% 30.31 in 10.0 mi South 6.9 mph - N/A   Clear
10:15 AM 67.1 °F 48.9 °F 52% 30.31 in 10.0 mi South 5.8 mph - N/A   Clear
10:35 AM 69.3 °F 49.1 °F 49% 30.30 in 10.0 mi SE 8.1 mph - N/A   Clear
10:55 AM 70.3 °F 48.9 °F 47% 30.30 in 10.0 mi SSE 5.8 mph - N/A   Clear
11:15 AM 71.6 °F 48.7 °F 44% 30.30 in 10.0 mi SSE 6.9 mph - N/A   Clear
11:35 AM 72.5 °F 48.6 °F 43% 30.30 in 10.0 mi ESE 8.1 mph - N/A   Clear
11:55 AM 73.4 °F 48.4 °F 41% 30.30 in 10.0 mi SE 8.1 mph - N/A   Clear
12:15 PM 73.6 °F 48.4 °F 41% 30.29 in 10.0 mi SSE 6.9 mph - N/A   Clear
12:35 PM 74.5 °F 48.2 °F 39% 30.29 in 10.0 mi SSE 6.9 mph - N/A   Clear
12:55 PM 75.4 °F 48.6 °F 39% 30.28 in 7.0 mi SE 9.2 mph - N/A   Clear
1:15 PM 76.3 °F 50.0 °F 40% 30.27 in 10.0 mi SSE 6.9 mph - N/A   Clear
1:35 PM 76.5 °F 47.5 °F 36% 30.27 in 10.0 mi SSE 6.9 mph - N/A   Clear
1:55 PM 77.0 °F 47.8 °F 36% 30.25 in 10.0 mi SSE 6.9 mph - N/A   Clear
2:15 PM 77.4 °F 48.2 °F 36% 30.25 in 10.0 mi SSE 9.2 mph - N/A   Clear
2:35 PM 78.1 °F 48.9 °F 36% 30.24 in 10.0 mi SSE 8.1 mph - N/A   Clear
3:35 PM 79.5 °F 48.4 °F 33% 30.23 in 10.0 mi East 8.1 mph - N/A   Clear
3:55 PM 80.4 °F 49.5 °F 34% 30.22 in 10.0 mi SSE 6.9 mph - N/A   Clear
4:15 PM 80.4 °F 49.8 °F 34% 30.22 in 10.0 mi SSE 3.5 mph - N/A   Clear
4:35 PM 80.8 °F 50.0 °F 34% 30.21 in 10.0 mi SE 8.1 mph - N/A   Clear
4:55 PM 81.1 °F 50.0 °F 34% 30.21 in 10.0 mi SE 6.9 mph - N/A   Clear
5:15 PM 81.1 °F 48.7 °F 32% 30.20 in 10.0 mi Calm Calm - N/A   Clear
5:35 PM 81.7 °F 48.4 °F 31% 30.19 in 10.0 mi SSW 10.4 mph - N/A   Clear
5:55 PM 81.3 °F 49.3 °F 33% 30.19 in 10.0 mi SSW 3.5 mph - N/A   Clear
6:35 PM 79.9 °F 50.0 °F 35% 30.19 in 10.0 mi SW 4.6 mph - N/A   Clear
7:15 PM 77.4 °F 53.6 °F 44% 30.19 in 10.0 mi Calm Calm - N/A   Clear
7:35 PM 74.8 °F 55.4 °F 51% 30.18 in 10.0 mi Calm Calm - N/A   Clear
7:55 PM 70.3 °F 55.9 °F 60% 30.18 in 10.0 mi Calm Calm - N/A   Clear
8:15 PM 67.3 °F 58.1 °F 72% 30.18 in 10.0 mi SW 3.5 mph - N/A   Clear
8:35 PM 65.5 °F 57.0 °F 74% 30.18 in 10.0 mi SW 4.6 mph - N/A   Clear
8:55 PM 68.9 °F 53.1 °F 57% 30.18 in 10.0 mi SW 4.6 mph - N/A   Clear
9:15 PM 67.8 °F 52.7 °F 58% 30.19 in 10.0 mi SW 3.5 mph - N/A   Clear
9:35 PM 67.1 °F 52.2 °F 59% 30.19 in 10.0 mi SW 4.6 mph - N/A   Clear
9:55 PM 66.4 °F 52.0 °F 60% 30.20 in 10.0 mi SW 4.6 mph - N/A   Clear
10:15 PM 65.8 °F 51.4 °F 60% 30.20 in 10.0 mi SW 4.6 mph - N/A   Clear
10:35 PM 65.7 °F 51.3 °F 60% 30.20 in 10.0 mi SW 4.6 mph - N/A   Clear
10:55 PM 64.8 °F 51.1 °F 61% 30.21 in 10.0 mi SW 4.6 mph - N/A   Clear
11:15 PM 63.9 °F 51.3 °F 64% 30.21 in 10.0 mi SW 3.5 mph - N/A   Clear
11:35 PM 62.8 °F 51.1 °F 66% 30.21 in 10.0 mi SW 3.5 mph - N/A   Clear
11:55 PM 62.6 °F 50.7 °F 65% 30.22 in 10.0 mi SW 3.5 mph - N/A   Clear